Time;durP1;ratioP1;P1;durP2;ratioP2;P2;SDS_P1;SDS_P2;PMS_P1;PMS_P2;Temp;Humidity;BMP_temperature;BMP_pressure;BME280_temperature;BME280_humidity;BME280_pressure;Samples;Min_cycle;Max_cycle;Signal;HPM_P1;HPM_P2
2023/03/01 00:02:11;;;;;;;46.35;26.00;;;25.60;99.90;;;;;;5063215;28;20021;-69
2023/03/01 00:04:37;;;;;;;36.20;23.98;;;25.50;99.90;;;;;;5044495;28;20025;-69
2023/03/01 00:07:03;;;;;;;38.10;23.33;;;25.50;99.90;;;;;;5035989;28;20075;-69
2023/03/01 00:09:30;;;;;;;37.08;21.98;;;25.60;99.90;;;;;;5034784;28;20391;-69
2023/03/01 00:11:56;;;;;;;39.13;21.42;;;25.50;99.90;;;;;;5035698;28;20026;-68
2023/03/01 00:14:23;;;;;;;45.30;22.77;;;25.50;99.90;;;;;;5052281;28;20025;-69
2023/03/01 00:16:50;;;;;;;39.65;23.23;;;25.50;99.90;;;;;;5055754;28;20029;-69
2023/03/01 00:19:19;;;;;;;39.80;27.48;;;25.50;99.90;;;;;;5047950;28;20025;-69
2023/03/01 00:21:45;;;;;;;48.60;29.13;;;25.60;99.90;;;;;;5035788;28;20029;-69
2023/03/01 00:24:12;;;;;;;40.55;25.42;;;25.60;99.90;;;;;;5041136;28;20034;-69
2023/03/01 00:26:39;;;;;;;41.00;23.17;;;25.60;99.90;;;;;;5054112;28;20036;-71
2023/03/01 00:29:05;;;;;;;39.55;23.80;;;25.70;99.90;;;;;;5055545;28;20021;-69
2023/03/01 00:31:33;;;;;;;39.53;23.30;;;25.70;99.90;;;;;;5055547;28;20032;-69
2023/03/01 00:34:03;;;;;;;33.38;21.15;;;25.80;99.90;;;;;;5055757;28;20374;-70
2023/03/01 00:36:34;;;;;;;36.03;20.58;;;25.80;99.90;;;;;;5054442;28;20067;-70
2023/03/01 00:39:01;;;;;;;30.67;20.10;;;25.90;99.90;;;;;;5055488;28;20095;-70
2023/03/01 00:41:28;;;;;;;29.33;17.65;;;25.90;99.90;;;;;;5055230;28;20090;-70
2023/03/01 00:43:55;;;;;;;32.80;20.52;;;26.00;99.90;;;;;;5055240;28;20028;-69
2023/03/01 00:46:25;;;;;;;86.85;64.10;;;26.00;99.90;;;;;;5055211;28;20024;-68
2023/03/01 00:48:51;;;;;;;57.35;32.80;;;26.00;99.90;;;;;;5055022;28;20025;-68
2023/03/01 00:51:22;;;;;;;38.42;21.95;;;26.00;99.90;;;;;;5054874;28;20044;-68
2023/03/01 00:53:51;;;;;;;31.33;16.90;;;26.00;99.90;;;;;;5055133;28;20075;-68
2023/03/01 00:56:18;;;;;;;24.63;18.20;;;26.00;99.90;;;;;;5054957;28;20025;-69
2023/03/01 00:58:45;;;;;;;30.98;17.48;;;26.00;99.90;;;;;;5055090;28;20108;-69
2023/03/01 01:01:17;;;;;;;28.88;17.90;;;26.00;99.90;;;;;;5054979;28;20022;-68
2023/03/01 01:04:06;;;;;;;30.98;17.73;;;26.00;99.90;;;;;;5055128;28;20094;-68
2023/03/01 01:06:34;;;;;;;45.13;25.85;;;26.00;99.90;;;;;;5052423;28;20070;-68
2023/03/01 01:09:01;;;;;;;38.22;24.90;;;26.00;99.90;;;;;;5052864;28;20032;-68
2023/03/01 01:11:29;;;;;;;32.33;21.50;;;26.10;99.90;;;;;;5052618;28;20122;-68
2023/03/01 01:13:57;;;;;;;25.48;18.67;;;26.10;99.90;;;;;;5051511;28;20025;-68
2023/03/01 01:16:26;;;;;;;39.53;23.15;;;26.10;99.90;;;;;;5052440;28;20606;-69
2023/03/01 01:18:53;;;;;;;32.17;19.45;;;26.20;99.90;;;;;;5052667;28;20052;-68
2023/03/01 01:21:23;;;;;;;28.33;17.88;;;26.20;99.90;;;;;;5052552;28;20060;-68
2023/03/01 01:23:50;;;;;;;27.13;18.05;;;26.20;99.90;;;;;;5052380;28;20029;-68
2023/03/01 01:26:36;;;;;;;29.10;20.05;;;26.20;99.90;;;;;;5052488;28;20036;-68
2023/03/01 01:29:04;;;;;;;26.45;19.48;;;26.20;99.90;;;;;;5052364;28;20036;-68
2023/03/01 01:31:32;;;;;;;35.25;20.35;;;26.20;99.90;;;;;;5052510;28;20497;-68
2023/03/01 01:34:01;;;;;;;36.72;25.60;;;26.20;99.90;;;;;;5052128;28;20032;-69
2023/03/01 01:36:28;;;;;;;40.80;23.35;;;26.30;99.90;;;;;;5052594;28;20053;-69
2023/03/01 01:38:55;;;;;;;31.77;22.33;;;26.30;99.90;;;;;;5054175;28;20027;-68
2023/03/01 01:41:22;;;;;;;60.00;41.83;;;26.30;99.90;;;;;;5054406;28;20033;-68
2023/03/01 01:44:17;;;;;;;43.97;31.33;;;26.30;99.90;;;;;;5054176;28;20060;-68
2023/03/01 01:46:46;;;;;;;39.63;28.05;;;26.40;99.90;;;;;;5053961;28;20021;-68
2023/03/01 01:49:25;;;;;;;40.25;27.55;;;26.40;99.90;;;;;;5054067;28;20029;-70
2023/03/01 01:52:00;;;;;;;39.92;25.00;;;26.40;99.90;;;;;;5053689;28;20053;-69
2023/03/01 01:54:40;;;;;;;37.25;23.77;;;26.50;99.90;;;;;;5054078;28;20021;-69
2023/03/01 01:57:29;;;;;;;50.08;37.55;;;26.50;99.90;;;;;;5053729;28;20024;-69
2023/03/01 02:00:04;;;;;;;37.30;25.23;;;26.50;99.90;;;;;;5031657;28;20044;-69
2023/03/01 02:02:31;;;;;;;40.67;25.98;;;26.50;99.90;;;;;;5031819;28;20044;-68
2023/03/01 02:05:14;;;;;;;38.95;24.13;;;26.50;99.90;;;;;;5031756;28;20052;-67
2023/03/01 02:07:42;;;;;;;36.13;23.40;;;26.50;99.90;;;;;;5031431;28;20364;-69
2023/03/01 02:10:09;;;;;;;355.90;268.40;;;26.50;99.90;;;;;;5031663;28;20060;-68
2023/03/01 02:12:37;;;;;;;41.83;26.30;;;26.60;99.90;;;;;;5031527;28;20025;-68
2023/03/01 02:15:05;;;;;;;38.42;25.75;;;26.50;99.90;;;;;;5031600;28;20064;-70
2023/03/01 02:17:32;;;;;;;46.42;31.20;;;26.60;99.90;;;;;;5031418;28;20028;-70
2023/03/01 02:20:38;;;;;;;39.28;25.83;;;26.60;99.90;;;;;;5031512;28;20463;-70
2023/03/01 02:23:05;;;;;;;35.50;22.35;;;26.60;99.90;;;;;;5031493;28;20107;-70
2023/03/01 02:25:47;;;;;;;48.50;30.67;;;26.60;99.90;;;;;;5031106;28;20037;-69
2023/03/01 02:28:16;;;;;;;56.47;35.90;;;26.60;99.90;;;;;;5031725;28;20025;-69
2023/03/01 02:33:36;;;;;;;78.35;41.97;;;26.60;99.90;;;;;;5053325;28;20489;-70
2023/03/01 02:36:09;;;;;;;136.13;75.60;;;26.60;99.90;;;;;;5053255;28;20534;-69
2023/03/01 02:38:36;;;;;;;437.10;300.50;;;26.70;99.90;;;;;;5053239;28;20075;-69
2023/03/01 02:41:05;;;;;;;85.07;64.10;;;26.60;99.90;;;;;;5053287;28;20029;-69
2023/03/01 02:43:34;;;;;;;342.38;233.45;;;26.70;99.90;;;;;;5053186;28;20021;-69
2023/03/01 02:46:13;;;;;;;85.25;59.45;;;26.70;99.90;;;;;;5053580;28;20421;-69
2023/03/01 02:48:44;;;;;;;307.08;196.32;;;26.80;99.90;;;;;;5053023;28;20021;-69
2023/03/01 02:51:22;;;;;;;219.23;142.50;;;26.80;99.90;;;;;;5053030;28;20041;-69
2023/03/01 02:54:09;;;;;;;258.63;173.02;;;26.90;99.90;;;;;;5053185;28;20090;-69
2023/03/01 02:56:36;;;;;;;633.78;453.73;;;27.00;99.90;;;;;;5053121;28;20052;-69
2023/03/01 02:59:03;;;;;;;479.40;301.52;;;27.00;99.90;;;;;;5053142;28;20028;-69
2023/03/01 03:01:36;;;;;;;63.78;37.53;;;27.10;99.90;;;;;;5053993;28;20045;-69
2023/03/01 03:04:10;;;;;;;846.90;463.50;;;27.10;99.90;;;;;;5053163;28;20021;-69
2023/03/01 03:06:37;;;;;;;75.68;40.53;;;27.10;99.90;;;;;;5039974;28;20034;-67
2023/03/01 03:09:05;;;;;;;90.93;45.63;;;27.10;99.90;;;;;;5050291;28;20025;-69
2023/03/01 03:11:32;;;;;;;40.92;22.88;;;27.20;99.90;;;;;;5052944;28;20032;-69
2023/03/01 03:13:58;;;;;;;47.15;25.98;;;27.20;99.90;;;;;;5052813;28;20021;-69
2023/03/01 03:16:25;;;;;;;32.28;18.50;;;27.20;99.90;;;;;;5052968;28;20051;-69
2023/03/01 03:18:51;;;;;;;37.58;19.42;;;27.20;99.90;;;;;;5039966;28;20517;-68
2023/03/01 03:21:18;;;;;;;82.15;38.10;;;27.20;99.90;;;;;;5032828;28;20120;-68
2023/03/01 03:23:44;;;;;;;104.30;43.83;;;27.30;99.90;;;;;;5033228;28;20029;-68
2023/03/01 03:26:13;;;;;;;38.55;20.55;;;27.40;99.90;;;;;;5032995;28;20092;-68
2023/03/01 03:28:39;;;;;;;133.10;59.38;;;27.50;99.90;;;;;;5032785;28;20024;-68
2023/03/01 03:31:07;;;;;;;50.97;26.75;;;27.50;99.90;;;;;;5032828;28;20033;-69
2023/03/01 03:33:34;;;;;;;48.72;24.52;;;27.50;99.90;;;;;;5032999;28;20474;-66
2023/03/01 03:36:00;;;;;;;59.58;31.55;;;27.50;99.90;;;;;;5032455;28;20084;-66
2023/03/01 03:38:27;;;;;;;26.60;16.05;;;27.50;99.90;;;;;;5035210;28;20087;-68
2023/03/01 03:41:05;;;;;;;27.50;17.20;;;27.50;99.90;;;;;;5036776;28;20022;-67
2023/03/01 03:43:33;;;;;;;57.97;25.42;;;27.50;99.90;;;;;;5036433;28;20072;-66
2023/03/01 03:46:00;;;;;;;44.08;22.25;;;27.60;99.90;;;;;;5036511;28;20482;-68
2023/03/01 03:48:27;;;;;;;23.02;15.98;;;27.60;99.90;;;;;;5036536;28;20037;-70
2023/03/01 03:50:56;;;;;;;33.60;18.85;;;27.70;99.90;;;;;;5046877;28;20033;-69
2023/03/01 03:53:24;;;;;;;23.35;14.45;;;27.80;99.90;;;;;;5036741;28;20360;-69
2023/03/01 03:55:51;;;;;;;24.45;13.23;;;27.80;99.90;;;;;;5036733;28;20378;-68
2023/03/01 03:58:19;;;;;;;24.27;15.55;;;27.80;99.90;;;;;;5036292;28;20043;-69
2023/03/01 04:00:48;;;;;;;22.98;11.70;;;27.90;99.90;;;;;;5036176;28;20104;-70
2023/03/01 04:03:17;;;;;;;19.95;12.43;;;28.00;99.90;;;;;;5036270;28;20030;-72
2023/03/01 04:05:43;;;;;;;25.65;14.38;;;28.00;99.90;;;;;;5036030;28;20037;-69
2023/03/01 04:08:10;;;;;;;26.50;14.98;;;28.10;99.90;;;;;;5041478;28;20030;-72
2023/03/01 04:10:40;;;;;;;23.98;15.15;;;28.00;99.90;;;;;;5044977;28;20033;-70
2023/03/01 04:13:11;;;;;;;25.20;14.93;;;28.00;99.90;;;;;;5036037;28;20029;-73
2023/03/01 04:15:38;;;;;;;26.40;15.00;;;28.00;99.90;;;;;;5035987;28;20029;-76
2023/03/01 04:18:05;;;;;;;22.00;13.88;;;28.10;99.90;;;;;;5035753;28;20018;-68
2023/03/01 04:20:34;;;;;;;20.05;13.35;;;28.20;99.90;;;;;;5035954;28;20028;-70
2023/03/01 04:23:15;;;;;;;25.98;14.93;;;28.40;99.90;;;;;;5035783;28;20104;-72
2023/03/01 04:25:45;;;;;;;26.80;15.52;;;28.40;99.90;;;;;;5035596;28;20296;-71
2023/03/01 04:28:12;;;;;;;22.73;12.00;;;28.40;99.90;;;;;;5043513;28;20029;-72
2023/03/01 04:30:39;;;;;;;23.48;13.50;;;28.40;99.90;;;;;;5055540;28;20059;-70
2023/03/01 04:33:07;;;;;;;30.35;15.45;;;28.30;99.90;;;;;;5055533;28;20025;-71
2023/03/01 04:35:35;;;;;;;20.40;12.93;;;28.30;99.90;;;;;;5055410;28;20147;-69
2023/03/01 04:38:02;;;;;;;23.35;13.93;;;28.30;99.90;;;;;;5055298;28;20067;-72
2023/03/01 04:40:29;;;;;;;22.88;12.40;;;28.20;99.90;;;;;;5054409;28;20095;-75
2023/03/01 04:42:55;;;;;;;18.55;11.45;;;28.20;99.90;;;;;;5046262;28;20064;-70
2023/03/01 04:45:22;;;;;;;18.80;10.63;;;28.20;99.90;;;;;;5035305;28;20067;-72
2023/03/01 04:47:51;;;;;;;12.68;9.35;;;28.30;99.90;;;;;;5035406;28;20049;-71
2023/03/01 04:50:22;;;;;;;16.55;10.70;;;28.20;99.90;;;;;;5035013;28;20045;-72
2023/03/01 04:52:49;;;;;;;28.83;15.48;;;28.20;99.90;;;;;;5035123;28;20021;-70
2023/03/01 04:55:16;;;;;;;26.60;16.30;;;28.30;99.90;;;;;;5035273;28;20025;-71
2023/03/01 04:57:43;;;;;;;37.13;24.83;;;28.30;99.90;;;;;;5035252;28;20018;-69
2023/03/01 05:00:22;;;;;;;35.40;23.73;;;28.30;99.90;;;;;;5040973;28;20035;-71
2023/03/01 05:02:53;;;;;;;47.33;28.48;;;28.30;99.90;;;;;;5038970;28;20025;-68
2023/03/01 05:05:21;;;;;;;26.45;14.52;;;28.40;99.90;;;;;;5035166;28;20024;-71
2023/03/01 05:07:48;;;;;;;26.95;12.38;;;28.50;99.90;;;;;;5053362;28;20033;-72
2023/03/01 05:10:14;;;;;;;16.80;11.23;;;28.60;99.90;;;;;;5051419;28;20359;-71
2023/03/01 05:12:41;;;;;;;26.00;16.13;;;28.70;99.90;;;;;;5042741;28;20444;-71
2023/03/01 05:15:08;;;;;;;25.70;15.40;;;28.70;99.90;;;;;;5053482;28;20044;-71
2023/03/01 05:17:35;;;;;;;66.38;39.47;;;28.70;99.90;;;;;;5051704;28;20032;-70
2023/03/01 05:20:05;;;;;;;35.05;22.42;;;28.70;99.90;;;;;;5054441;28;20100;-71
2023/03/01 05:22:32;;;;;;;28.48;16.60;;;28.80;99.90;;;;;;5053370;28;20589;-70
2023/03/01 05:24:58;;;;;;;22.83;12.82;;;28.90;99.90;;;;;;5053791;28;20031;-69
2023/03/01 05:27:25;;;;;;;19.27;12.98;;;28.80;99.90;;;;;;5053562;28;20264;-69
2023/03/01 05:29:51;;;;;;;19.10;12.15;;;28.90;99.90;;;;;;5051972;28;20021;-70
2023/03/01 05:32:18;;;;;;;24.48;12.15;;;29.00;99.90;;;;;;5052303;28;20017;-70
2023/03/01 05:34:46;;;;;;;17.15;12.20;;;29.00;99.90;;;;;;5051984;28;20025;-70
2023/03/01 05:37:13;;;;;;;19.90;11.45;;;29.10;99.90;;;;;;5051136;28;20020;-70
2023/03/01 05:39:41;;;;;;;17.15;12.43;;;29.20;99.90;;;;;;5053672;28;20027;-69
2023/03/01 05:42:11;;;;;;;15.07;10.95;;;29.20;99.90;;;;;;5053640;28;20037;-70
2023/03/01 05:44:38;;;;;;;15.25;10.73;;;29.20;99.90;;;;;;5053329;28;20477;-70
2023/03/01 05:47:04;;;;;;;22.65;11.68;;;29.10;99.90;;;;;;5049907;28;20393;-71
2023/03/01 05:49:32;;;;;;;16.35;10.85;;;29.10;99.90;;;;;;5053694;28;20593;-68
2023/03/01 05:51:58;;;;;;;16.88;10.68;;;29.00;99.90;;;;;;5043672;28;20060;-69
2023/03/01 05:54:25;;;;;;;16.08;9.23;;;28.90;99.90;;;;;;5044546;28;20501;-70
2023/03/01 05:56:52;;;;;;;20.70;10.48;;;28.90;99.90;;;;;;5053891;28;20051;-69
2023/03/01 05:59:19;;;;;;;16.88;10.82;;;28.90;99.90;;;;;;5043570;28;20071;-71
2023/03/01 06:01:45;;;;;;;15.30;10.55;;;28.90;99.90;;;;;;5043817;28;20029;-71
2023/03/01 06:04:12;;;;;;;18.30;10.43;;;28.90;99.90;;;;;;5053246;28;20535;-71
2023/03/01 06:06:39;;;;;;;15.00;10.65;;;28.90;99.90;;;;;;5053519;28;20024;-71
2023/03/01 06:09:08;;;;;;;38.92;27.92;;;28.90;99.90;;;;;;5053237;28;20037;-71
2023/03/01 06:11:36;;;;;;;16.55;11.88;;;29.00;99.90;;;;;;5042494;28;20033;-72
2023/03/01 06:14:08;;;;;;;46.85;31.27;;;29.10;99.90;;;;;;5050792;28;20025;-69
2023/03/01 06:16:34;;;;;;;30.40;21.17;;;29.20;99.90;;;;;;5052434;28;20390;-67
2023/03/01 06:19:01;;;;;;;29.15;18.92;;;29.20;99.90;;;;;;5042087;28;20022;-72
2023/03/01 06:21:27;;;;;;;24.80;15.25;;;29.20;99.90;;;;;;5051518;28;20067;-70
2023/03/01 06:23:54;;;;;;;39.13;22.55;;;29.20;99.90;;;;;;5052768;28;20499;-69
2023/03/01 06:26:20;;;;;;;76.03;47.72;;;29.20;99.90;;;;;;5052532;28;20021;-67
2023/03/01 06:28:47;;;;;;;14.77;9.20;;;29.30;99.90;;;;;;5052542;28;20025;-67
2023/03/01 06:31:13;;;;;;;10.90;8.10;;;29.30;99.90;;;;;;5053061;28;20013;-69
2023/03/01 06:33:40;;;;;;;18.25;9.85;;;29.30;99.90;;;;;;5053060;28;20059;-67
2023/03/01 06:36:09;;;;;;;9.32;5.82;;;29.30;99.90;;;;;;5053166;28;20117;-67
2023/03/01 06:38:35;;;;;;;8.15;5.25;;;29.30;99.90;;;;;;5042288;28;20032;-69
2023/03/01 06:41:02;;;;;;;32.35;24.13;;;29.30;99.90;;;;;;5050468;28;20031;-71
2023/03/01 06:43:29;;;;;;;22.02;16.27;;;29.30;99.90;;;;;;5053852;28;20025;-68
2023/03/01 06:45:55;;;;;;;14.70;10.15;;;29.30;99.90;;;;;;5054709;28;20025;-69
2023/03/01 06:48:22;;;;;;;13.57;6.15;;;29.40;99.90;;;;;;5052675;28;20059;-69
2023/03/01 06:50:48;;;;;;;10.75;6.13;;;29.50;99.90;;;;;;5052274;28;20083;-68
2023/03/01 06:53:15;;;;;;;12.55;6.97;;;29.50;99.90;;;;;;5049997;28;20027;-68
2023/03/01 06:55:42;;;;;;;8.13;5.47;;;29.60;99.90;;;;;;5050708;28;20009;-68
2023/03/01 06:58:10;;;;;;;11.10;7.00;;;29.70;99.90;;;;;;5041363;28;20041;-67
2023/03/01 07:00:36;;;;;;;10.02;6.32;;;29.70;99.90;;;;;;5052386;28;20025;-68
2023/03/01 07:03:03;;;;;;;8.32;4.90;;;29.80;99.90;;;;;;5052400;28;20028;-68
2023/03/01 07:05:30;;;;;;;7.95;5.22;;;29.90;99.90;;;;;;5041360;28;20017;-70
2023/03/01 07:07:57;;;;;;;11.63;6.57;;;29.90;99.90;;;;;;5041523;28;20116;-68
2023/03/01 07:10:24;;;;;;;21.65;10.98;;;30.00;99.90;;;;;;5043220;28;20385;-68
2023/03/01 07:12:50;;;;;;;17.77;10.85;;;30.10;99.90;;;;;;5077307;28;20391;-67
2023/03/01 07:15:17;;;;;;;14.00;8.88;;;30.20;99.90;;;;;;5042766;28;20013;-68
2023/03/01 07:17:44;;;;;;;9.63;4.70;;;30.30;99.90;;;;;;5037024;28;20021;-68
2023/03/01 07:20:11;;;;;;;9.93;5.80;;;30.30;99.90;;;;;;5048970;28;20033;-68
2023/03/01 07:22:41;;;;;;;9.23;5.95;;;30.20;99.90;;;;;;5057005;28;20470;-68
2023/03/01 07:25:08;;;;;;;10.65;6.20;;;30.10;99.90;;;;;;5056877;28;20057;-68
2023/03/01 07:27:34;;;;;;;11.27;6.72;;;30.10;99.90;;;;;;5044195;28;20076;-68
2023/03/01 07:30:01;;;;;;;14.00;7.00;;;30.00;99.90;;;;;;5036805;28;20109;-68
2023/03/01 07:32:28;;;;;;;10.60;7.18;;;30.00;99.90;;;;;;5042859;28;20078;-67
2023/03/01 07:34:54;;;;;;;11.45;6.50;;;29.90;99.90;;;;;;5040966;28;20052;-66
2023/03/01 07:37:21;;;;;;;6.60;5.70;;;29.90;99.90;;;;;;5036642;28;20032;-67
2023/03/01 07:39:48;;;;;;;10.23;5.97;;;29.80;99.90;;;;;;5036712;28;20386;-67
2023/03/01 07:42:14;;;;;;;8.50;5.63;;;29.80;99.90;;;;;;5036317;28;20029;-68
2023/03/01 07:44:41;;;;;;;11.00;6.72;;;29.70;99.90;;;;;;5051892;28;20464;-66
2023/03/01 07:47:07;;;;;;;8.18;5.55;;;29.70;99.90;;;;;;5036471;28;20017;-67
2023/03/01 07:49:34;;;;;;;8.05;5.78;;;29.70;99.90;;;;;;5036241;28;20033;-68
2023/03/01 07:52:01;;;;;;;9.48;5.03;;;29.70;99.90;;;;;;5036388;28;20587;-67
2023/03/01 07:54:27;;;;;;;13.43;6.75;;;29.70;99.90;;;;;;5036383;28;20021;-67
2023/03/01 07:56:54;;;;;;;8.10;4.53;;;29.70;99.90;;;;;;5036385;28;20045;-66
2023/03/01 07:59:21;;;;;;;7.78;4.57;;;29.70;99.90;;;;;;5036154;28;20029;-67
2023/03/01 08:01:47;;;;;;;7.13;4.78;;;29.70;99.90;;;;;;5036211;28;20030;-68
2023/03/01 08:04:16;;;;;;;8.85;5.10;;;29.80;99.90;;;;;;5036373;28;20079;-68
2023/03/01 08:06:43;;;;;;;7.18;4.05;;;29.80;99.90;;;;;;5041301;28;20032;-68
2023/03/01 08:09:09;;;;;;;6.03;4.38;;;29.80;99.90;;;;;;5044963;28;20068;-68
2023/03/01 08:11:36;;;;;;;10.32;5.22;;;29.80;99.90;;;;;;5036054;28;20060;-68
2023/03/01 08:14:03;;;;;;;11.20;5.22;;;29.90;99.90;;;;;;5035890;28;20033;-68
2023/03/01 08:16:30;;;;;;;9.57;5.50;;;29.90;99.90;;;;;;5036282;28;20549;-68
2023/03/01 08:19:00;;;;;;;7.63;4.65;;;30.00;99.90;;;;;;5036259;28;20022;-68
2023/03/01 08:21:27;;;;;;;10.02;5.57;;;30.10;99.90;;;;;;5051947;28;20424;-69
2023/03/01 08:23:53;;;;;;;7.63;5.38;;;30.20;99.90;;;;;;5044747;28;20104;-68
2023/03/01 08:26:21;;;;;;;10.27;5.68;;;30.20;99.90;;;;;;5046318;28;20405;-67
2023/03/01 08:28:49;;;;;;;7.80;5.68;;;30.30;99.90;;;;;;5044966;28;20025;-69
2023/03/01 08:31:30;;;;;;;10.40;4.78;;;30.40;99.90;;;;;;5043998;28;20032;-69
2023/03/01 08:33:59;;;;;;;8.63;5.10;;;30.30;99.90;;;;;;5043995;28;20025;-69
2023/03/01 08:36:29;;;;;;;6.75;5.25;;;30.30;99.90;;;;;;5045491;28;20017;-67
2023/03/01 08:38:55;;;;;;;10.07;4.93;;;30.20;99.90;;;;;;5046246;28;20382;-71
2023/03/01 08:41:22;;;;;;;6.50;4.32;;;30.20;99.90;;;;;;5052395;28;20017;-68
2023/03/01 08:43:50;;;;;;;9.98;4.90;;;30.20;99.90;;;;;;5055041;28;20465;-68
2023/03/01 08:46:16;;;;;;;8.25;5.53;;;30.20;99.90;;;;;;5054764;28;20029;-70
2023/03/01 08:48:43;;;;;;;13.00;5.88;;;30.10;99.90;;;;;;5052046;28;20109;-71
2023/03/01 08:51:12;;;;;;;8.90;4.50;;;30.20;99.90;;;;;;5037746;28;20041;-67
2023/03/01 08:53:40;;;;;;;5.47;4.70;;;30.10;99.90;;;;;;5034600;28;20522;-68
2023/03/01 08:56:07;;;;;;;5.78;4.57;;;30.10;99.90;;;;;;5044641;28;20033;-71
2023/03/01 08:58:34;;;;;;;8.43;4.90;;;30.10;99.90;;;;;;5054368;28;20021;-68
2023/03/01 09:01:06;;;;;;;8.80;6.28;;;30.20;99.90;;;;;;5043373;28;20474;-70
2023/03/01 09:03:32;;;;;;;10.13;6.97;;;30.20;99.90;;;;;;5054258;28;20099;-71
2023/03/01 09:06:02;;;;;;;62.78;40.25;;;30.10;99.90;;;;;;5053454;28;20367;-67
2023/03/01 09:08:29;;;;;;;41.00;22.67;;;30.20;99.90;;;;;;5055170;28;20025;-69
2023/03/01 09:10:55;;;;;;;101.25;62.33;;;30.10;99.90;;;;;;5055273;28;20470;-67
2023/03/01 09:13:25;;;;;;;21.38;13.00;;;30.20;99.90;;;;;;5055215;28;20029;-68
2023/03/01 09:15:52;;;;;;;27.02;16.42;;;30.20;99.90;;;;;;5054308;28;20024;-67
2023/03/01 09:18:18;;;;;;;39.67;25.17;;;30.30;99.90;;;;;;5054208;28;20281;-68
2023/03/01 09:20:45;;;;;;;24.27;16.70;;;30.30;99.90;;;;;;5054186;28;20025;-69
2023/03/01 09:23:11;;;;;;;46.08;24.23;;;30.40;99.90;;;;;;5054219;28;20374;-68
2023/03/01 09:25:38;;;;;;;17.25;9.10;;;30.30;99.90;;;;;;5053984;28;20024;-67
2023/03/01 09:28:05;;;;;;;60.15;39.05;;;30.30;99.90;;;;;;5054276;28;20017;-68
2023/03/01 09:30:31;;;;;;;47.75;31.30;;;30.30;99.90;;;;;;5052133;28;20032;-68
2023/03/01 09:32:59;;;;;;;32.55;20.48;;;30.30;99.90;;;;;;5054295;28;20418;-68
2023/03/01 09:35:25;;;;;;;82.60;57.33;;;30.30;99.90;;;;;;5051363;28;20025;-68
2023/03/01 09:37:52;;;;;;;22.33;14.20;;;30.30;99.90;;;;;;5054271;28;20009;-69
2023/03/01 09:40:23;;;;;;;25.50;13.85;;;30.30;99.90;;;;;;5051384;28;20020;-66
2023/03/01 09:42:54;;;;;;;484.83;342.50;;;30.30;99.90;;;;;;5053931;28;20014;-68
2023/03/01 09:45:29;;;;;;;455.10;298.08;;;30.30;99.90;;;;;;5051164;28;20202;-69
2023/03/01 09:47:57;;;;;;;1160.43;732.38;;;30.30;99.90;;;;;;5053588;28;20071;-69
2023/03/01 09:50:26;;;;;;;1999.90;999.90;;;30.30;99.90;;;;;;5053307;28;20045;-66
2023/03/01 09:53:00;;;;;;;1999.90;999.90;;;30.30;99.90;;;;;;5054060;28;20036;-68
2023/03/01 09:55:48;;;;;;;696.67;493.50;;;30.30;99.90;;;;;;5054718;28;20052;-66
2023/03/01 09:58:36;;;;;;;1041.15;683.60;;;30.30;99.90;;;;;;5010195;28;20042;-67
2023/03/01 10:01:32;;;;;;;1386.45;851.35;;;30.30;99.90;;;;;;4992949;28;20117;-66
2023/03/01 10:04:30;;;;;;;727.53;522.50;;;30.30;99.90;;;;;;4995935;28;20065;-67
2023/03/01 10:07:17;;;;;;;1074.18;721.40;;;30.30;99.90;;;;;;5009009;28;20030;-67
2023/03/01 10:09:46;;;;;;;680.50;520.20;;;30.30;99.90;;;;;;4992193;28;20034;-67
2023/03/01 10:12:18;;;;;;;1823.10;942.80;;;30.30;99.90;;;;;;4984739;28;20049;-66
2023/03/01 10:15:18;;;;;;;863.75;642.88;;;30.30;99.90;;;;;;4979733;28;20491;-66
2023/03/01 10:18:12;;;;;;;1517.47;883.67;;;30.20;99.90;;;;;;4988728;28;20046;-67
2023/03/01 10:20:41;;;;;;;818.45;583.75;;;30.20;99.90;;;;;;4987665;28;20143;-68
2023/03/01 10:23:09;;;;;;;655.95;476.58;;;30.20;99.90;;;;;;4982112;28;20754;-68
2023/03/01 10:26:08;;;;;;;490.58;362.27;;;30.30;99.90;;;;;;4984108;28;20043;-67
2023/03/01 10:28:57;;;;;;;372.30;272.55;;;30.30;99.90;;;;;;4984735;28;20498;-67
2023/03/01 10:31:36;;;;;;;186.23;140.25;;;30.30;99.90;;;;;;4985330;28;20034;-68
2023/03/01 10:34:15;;;;;;;311.63;217.32;;;30.20;99.90;;;;;;4983048;28;20038;-68
2023/03/01 10:36:44;;;;;;;125.60;82.85;;;30.20;99.90;;;;;;4989401;28;20022;-67
2023/03/01 10:39:30;;;;;;;89.85;60.65;;;30.20;99.90;;;;;;4989629;28;20106;-69
2023/03/01 10:42:00;;;;;;;108.43;70.28;;;30.10;99.90;;;;;;5013978;28;20037;-68
2023/03/01 10:44:50;;;;;;;113.25;77.35;;;30.10;99.90;;;;;;5048528;23;20116;-69
2023/03/01 10:47:23;;;;;;;108.60;74.60;;;30.00;99.90;;;;;;5002970;28;20025;-66
2023/03/01 10:49:59;;;;;;;104.68;72.80;;;30.00;99.90;;;;;;5010586;28;20025;-68
2023/03/01 10:52:34;;;;;;;69.97;47.42;;;29.90;99.90;;;;;;5009478;28;20030;-67
2023/03/01 10:55:24;;;;;;;83.43;66.18;;;29.90;99.90;;;;;;5009617;28;20149;-67
2023/03/01 10:58:06;;;;;;;71.28;53.85;;;29.90;99.90;;;;;;5008238;28;20022;-66
2023/03/01 11:00:32;;;;;;;60.90;46.50;;;29.80;99.90;;;;;;5005493;28;20033;-68
2023/03/01 11:02:59;;;;;;;39.70;26.83;;;29.80;99.90;;;;;;5004984;28;20101;-70
2023/03/01 11:05:29;;;;;;;61.75;45.15;;;29.70;99.90;;;;;;5006321;28;20360;-69
2023/03/01 11:07:58;;;;;;;57.92;36.97;;;29.70;99.90;;;;;;5008697;28;20026;-68
2023/03/01 11:10:28;;;;;;;41.97;25.75;;;29.60;99.90;;;;;;5002529;28;20018;-69
2023/03/01 11:13:14;;;;;;;31.50;21.48;;;29.60;99.90;;;;;;4996462;28;20121;-67
2023/03/01 11:15:41;;;;;;;68.95;48.45;;;29.50;99.90;;;;;;5015078;28;20029;-70
2023/03/01 11:18:21;;;;;;;84.15;58.05;;;29.50;99.90;;;;;;5011925;28;20025;-68
2023/03/01 11:20:51;;;;;;;97.63;61.40;;;29.50;99.90;;;;;;4999292;28;20495;-69
2023/03/01 11:23:18;;;;;;;142.23;76.55;;;29.50;99.90;;;;;;4998218;28;20030;-67
2023/03/01 11:25:59;;;;;;;76.00;48.50;;;29.50;99.90;;;;;;5015376;28;20025;-68
2023/03/01 11:28:28;;;;;;;80.75;51.72;;;29.50;99.90;;;;;;5000567;28;20498;-67
2023/03/01 11:31:14;;;;;;;139.43;107.95;;;29.40;99.90;;;;;;5013827;28;20064;-73
2023/03/01 11:33:49;;;;;;;162.88;114.20;;;29.40;99.90;;;;;;5011222;28;20027;-73
2023/03/01 11:36:16;;;;;;;97.80;68.93;;;29.30;99.90;;;;;;5011556;28;20083;-68
2023/03/01 11:38:43;;;;;;;132.00;89.72;;;29.30;99.90;;;;;;5017922;28;20387;-69
2023/03/01 11:41:32;;;;;;;104.00;67.38;;;29.30;99.90;;;;;;5016474;28;20049;-69
2023/03/01 11:44:01;;;;;;;186.43;134.93;;;29.30;99.90;;;;;;4940125;29;20054;-69
2023/03/01 11:46:31;;;;;;;110.95;69.38;;;29.30;99.90;;;;;;4952923;29;20040;-69
2023/03/01 11:48:58;;;;;;;116.28;69.22;;;29.30;99.90;;;;;;4941425;29;20031;-69
2023/03/01 11:51:31;;;;;;;89.18;52.63;;;29.30;99.90;;;;;;4942781;29;20062;-68
2023/03/01 11:54:05;;;;;;;70.07;42.03;;;29.30;99.90;;;;;;4933545;29;20159;-68
2023/03/01 11:56:35;;;;;;;50.20;31.20;;;29.20;99.90;;;;;;4931579;29;20028;-68
2023/03/01 11:59:20;;;;;;;119.03;68.18;;;29.10;99.90;;;;;;4942882;29;20129;-67
2023/03/01 12:02:00;;;;;;;85.93;52.67;;;29.10;99.90;;;;;;4938943;29;20506;-67
2023/03/01 12:05:06;;;;;;;51.33;30.90;;;29.10;99.90;;;;;;4941649;29;20066;-68
2023/03/01 12:08:01;;;;;;;90.18;52.75;;;29.00;99.90;;;;;;4955025;29;20054;-70
2023/03/01 12:10:35;;;;;;;79.10;45.55;;;29.00;99.90;;;;;;4938987;29;20488;-69
2023/03/01 12:13:22;;;;;;;45.60;26.55;;;28.90;99.90;;;;;;4935594;29;20127;-69
2023/03/01 12:16:15;;;;;;;32.65;18.73;;;28.90;99.90;;;;;;4937364;29;20063;-70
2023/03/01 12:18:49;;;;;;;34.65;19.63;;;28.80;99.90;;;;;;4938367;29;20155;-69
2023/03/01 12:21:42;;;;;;;29.95;19.65;;;28.80;99.90;;;;;;4936443;29;20036;-71
2023/03/01 12:24:15;;;;;;;50.30;25.17;;;28.80;99.90;;;;;;4935487;29;20554;-72
2023/03/01 12:27:03;;;;;;;40.40;25.38;;;28.80;99.90;;;;;;4936311;29;20071;-72
2023/03/01 12:30:09;;;;;;;51.35;27.48;;;28.70;99.90;;;;;;5034339;23;20073;-70
2023/03/01 12:32:39;;;;;;;33.78;19.92;;;28.60;99.90;;;;;;5029746;28;20060;-72
2023/03/01 12:35:23;;;;;;;37.47;21.92;;;28.60;99.90;;;;;;5020863;28;20033;-72
2023/03/01 12:38:16;;;;;;;67.63;42.78;;;28.70;99.90;;;;;;5015108;28;20014;-71
2023/03/01 12:41:13;;;;;;;56.20;34.17;;;28.60;99.90;;;;;;5025784;28;20040;-72
2023/03/01 12:43:43;;;;;;;98.63;61.30;;;28.60;99.90;;;;;;5013967;28;20224;-72
2023/03/01 12:46:21;;;;;;;69.10;44.40;;;28.60;99.90;;;;;;5013900;28;20022;-72
2023/03/01 12:48:57;;;;;;;65.53;42.65;;;28.60;99.90;;;;;;5013912;28;20239;-71
2023/03/01 12:51:29;;;;;;;62.45;44.50;;;28.60;99.90;;;;;;5013956;28;20545;-71